createdAt,value
2022-11-04T00:00:56.096Z,10.18
2022-11-04T00:03:25.632Z,10.21
2022-11-04T00:05:55.138Z,10.28
2022-11-04T00:08:27.604Z,10.40
2022-11-04T00:11:17.950Z,10.33
2022-11-04T00:13:48.536Z,10.27
2022-11-04T00:16:37.277Z,10.29
2022-11-04T00:19:06.679Z,10.40
2022-11-04T00:21:54.684Z,10.39
2022-11-04T00:24:42.850Z,10.26
2022-11-04T00:27:37.807Z,10.30
2022-11-04T00:30:11.299Z,10.22
2022-11-04T00:32:59.316Z,10.05
2022-11-04T00:35:28.842Z,10.11
2022-11-04T00:37:58.456Z,10.16
2022-11-04T00:40:28.085Z,10.32
2022-11-04T00:43:00.202Z,10.29
2022-11-04T00:45:30.051Z,10.32
2022-11-04T00:47:59.581Z,10.17
2022-11-04T00:50:29.145Z,10.17
2022-11-04T00:53:05.496Z,10.15
2022-11-04T00:55:35.167Z,10.19
2022-11-04T00:58:04.960Z,10.05
2022-11-04T01:00:34.402Z,10.12
2022-11-04T01:03:04.090Z,10.17
2022-11-04T01:05:38.636Z,10.03
2022-11-04T01:08:08.355Z,10.06
2022-11-04T01:10:44.750Z,10.11
2022-11-04T01:13:15.041Z,10.07
2022-11-04T01:15:47.172Z,10.08
2022-11-04T01:18:16.746Z,10.07
2022-11-04T01:20:45.540Z,10.01
2022-11-04T01:23:15.150Z,10.00
2022-11-04T01:25:44.657Z,9.90
2022-11-04T01:28:14.073Z,9.88
2022-11-04T01:30:43.585Z,9.81
2022-11-04T01:33:13.213Z,9.92
2022-11-04T01:35:42.688Z,9.83
2022-11-04T01:38:12.279Z,9.72
2022-11-04T01:40:42.452Z,9.83
2022-11-04T01:43:19.695Z,9.84
2022-11-04T01:46:01.992Z,9.81
2022-11-04T01:48:37.901Z,9.91
2022-11-04T01:51:08.275Z,9.87
2022-11-04T01:53:42.482Z,9.82
2022-11-04T01:56:14.965Z,9.70
2022-11-04T01:59:00.356Z,9.78
2022-11-04T02:01:30.096Z,9.83
2022-11-04T02:04:21.439Z,9.71
2022-11-04T02:07:11.818Z,9.74
2022-11-04T02:09:42.461Z,9.58
2022-11-04T02:12:30.616Z,9.65
2022-11-04T02:15:00.407Z,9.56
2022-11-04T02:17:55.746Z,9.62
2022-11-04T02:21:03.922Z,9.58
2022-11-04T02:24:36.035Z,9.53
2022-11-04T02:27:47.614Z,9.32
2022-11-04T02:30:19.980Z,9.50
2022-11-04T02:33:20.075Z,9.57
2022-11-04T02:36:46.881Z,9.67
2022-11-04T02:39:53.961Z,9.60
2022-11-04T02:43:03.438Z,9.52
2022-11-04T02:45:44.457Z,9.51
2022-11-04T02:48:46.023Z,9.57
2022-11-04T02:52:06.492Z,9.52
2022-11-04T02:54:45.730Z,9.56
2022-11-04T02:57:26.765Z,9.52
2022-11-04T03:00:10.344Z,9.49
2022-11-04T03:03:15.817Z,9.47
2022-11-04T03:05:51.109Z,9.51
2022-11-04T03:08:39.283Z,9.49
2022-11-04T03:11:28.909Z,9.51
2022-11-04T03:14:21.216Z,9.49
2022-11-04T03:16:58.336Z,9.44
2022-11-04T03:19:57.990Z,9.36
2022-11-04T03:22:31.256Z,9.33
2022-11-04T03:25:06.595Z,9.32
2022-11-04T03:27:53.984Z,9.34
2022-11-04T03:30:25.032Z,9.30
2022-11-04T03:33:34.839Z,9.29
2022-11-04T03:36:04.797Z,9.24
2022-11-04T03:38:35.413Z,9.23
2022-11-04T03:41:15.535Z,9.20
2022-11-04T03:43:45.000Z,9.18
2022-11-04T03:46:14.703Z,8.96
2022-11-04T03:48:47.092Z,9.14
2022-11-04T03:51:16.655Z,9.16
2022-11-04T03:53:46.407Z,9.12
2022-11-04T03:56:40.655Z,9.30
2022-11-04T03:59:46.808Z,9.22
2022-11-04T04:02:27.793Z,9.04
2022-11-04T04:05:30.123Z,9.16
2022-11-04T04:08:39.082Z,9.30
2022-11-04T04:11:26.354Z,9.15
2022-11-04T04:14:40.540Z,9.08
2022-11-04T04:17:31.479Z,9.02
2022-11-04T04:20:18.937Z,9.01
2022-11-04T04:23:35.130Z,8.87
2022-11-04T04:26:26.893Z,8.91
2022-11-04T04:28:58.143Z,8.82
2022-11-04T04:31:48.402Z,8.75
2022-11-04T04:34:28.994Z,8.88
2022-11-04T04:37:22.404Z,8.70
2022-11-04T04:40:34.633Z,8.72
2022-11-04T04:43:23.384Z,8.78
2022-11-04T04:45:56.564Z,8.73
2022-11-04T04:48:26.181Z,8.74
2022-11-04T04:50:58.084Z,8.66
2022-11-04T04:53:27.636Z,8.70
2022-11-04T04:55:57.212Z,8.69
2022-11-04T04:58:26.671Z,8.64
2022-11-04T05:00:56.265Z,8.54
2022-11-04T05:03:26.448Z,8.59
2022-11-04T05:05:58.696Z,8.60
2022-11-04T05:08:28.628Z,8.46
2022-11-04T05:10:59.899Z,8.51
2022-11-04T05:13:30.383Z,8.50
2022-11-04T05:16:11.656Z,8.55
2022-11-04T05:18:41.160Z,8.50
2022-11-04T05:21:15.673Z,8.62
2022-11-04T05:23:45.187Z,8.60
2022-11-04T05:26:15.136Z,8.49
2022-11-04T05:28:44.703Z,8.40
2022-11-04T05:31:14.398Z,8.53
2022-11-04T05:33:44.013Z,8.52
2022-11-04T05:36:16.796Z,8.45
2022-11-04T05:38:55.664Z,8.51
2022-11-04T05:41:28.046Z,8.47
2022-11-04T05:44:01.810Z,8.33
2022-11-04T05:46:32.498Z,8.26
2022-11-04T05:49:01.990Z,8.30
2022-11-04T05:51:31.828Z,8.39
2022-11-04T05:54:02.289Z,8.49
2022-11-04T05:56:31.789Z,8.59
2022-11-04T05:59:01.397Z,8.51
2022-11-04T06:01:40.143Z,8.43
2022-11-04T06:04:17.515Z,8.48
2022-11-04T06:06:47.204Z,8.41
2022-11-04T06:09:16.713Z,8.46
2022-11-04T06:11:46.837Z,8.57
2022-11-04T06:14:18.716Z,8.34
2022-11-04T06:16:48.649Z,8.38
2022-11-04T06:19:18.171Z,8.56
2022-11-04T06:21:47.697Z,8.43
2022-11-04T06:24:17.185Z,8.37
2022-11-04T06:26:46.266Z,8.52
2022-11-04T06:29:15.901Z,8.42
2022-11-04T06:31:45.532Z,8.55
2022-11-04T06:34:16.135Z,8.62
2022-11-04T06:36:45.675Z,8.36
2022-11-04T06:39:15.317Z,8.63
2022-11-04T06:41:47.637Z,8.68
2022-11-04T06:44:20.219Z,8.78
2022-11-04T06:46:50.033Z,8.72
2022-11-04T06:49:23.236Z,8.56
2022-11-04T06:51:52.803Z,8.84
2022-11-04T06:54:21.495Z,8.83
2022-11-04T06:56:50.958Z,8.89
2022-11-04T06:59:21.921Z,8.74
2022-11-04T07:01:52.507Z,8.71
2022-11-04T07:04:22.146Z,8.87
2022-11-04T07:06:51.719Z,9.00
2022-11-04T07:09:21.350Z,8.86
2022-11-04T07:11:51.292Z,8.95
2022-11-04T07:14:20.862Z,8.99
2022-11-04T07:16:51.687Z,8.98
2022-11-04T07:19:21.346Z,8.98
2022-11-04T07:21:50.824Z,9.26
2022-11-04T07:24:20.369Z,9.17
2022-11-04T07:26:49.977Z,9.27
2022-11-04T07:29:19.623Z,9.22
2022-11-04T07:31:49.175Z,9.29
2022-11-04T07:34:18.161Z,9.31
2022-11-04T07:36:47.819Z,9.47
2022-11-04T07:39:17.683Z,9.18
2022-11-04T07:41:47.199Z,9.50
2022-11-04T07:44:18.559Z,9.38
2022-11-04T07:46:48.090Z,9.41
2022-11-04T07:49:17.698Z,9.35
2022-11-04T07:51:48.770Z,9.64
2022-11-04T07:54:18.399Z,9.33
2022-11-04T07:56:47.915Z,9.70
2022-11-04T07:59:17.451Z,9.55
2022-11-04T08:01:47.015Z,9.57
2022-11-04T08:04:16.605Z,9.62
2022-11-04T08:06:48.853Z,9.46
2022-11-04T08:09:17.934Z,9.60
2022-11-04T08:11:47.615Z,9.72
2022-11-04T08:14:16.796Z,9.77
2022-11-04T08:16:51.983Z,9.74
2022-11-04T08:19:21.484Z,9.75
2022-11-04T08:21:51.069Z,9.75
2022-11-04T08:24:20.962Z,9.72
2022-11-04T08:26:49.813Z,9.88
2022-11-04T08:29:19.516Z,9.79
2022-11-04T08:31:49.100Z,9.92
2022-11-04T08:34:18.720Z,9.98
2022-11-04T08:36:48.806Z,10.14
2022-11-04T08:39:18.420Z,10.02
2022-11-04T08:41:49.714Z,10.04
2022-11-04T08:44:20.043Z,9.82
2022-11-04T08:46:49.996Z,10.07
2022-11-04T08:49:21.363Z,10.06
2022-11-04T08:51:57.281Z,10.09
2022-11-04T08:54:27.980Z,10.14
2022-11-04T08:56:57.601Z,9.93
2022-11-04T08:59:26.308Z,10.11
2022-11-04T09:01:55.168Z,10.02
2022-11-04T09:04:25.293Z,10.05
2022-11-04T09:06:56.477Z,10.21
2022-11-04T09:09:28.938Z,10.17
2022-11-04T09:11:58.457Z,10.16
2022-11-04T09:14:28.531Z,10.52
2022-11-04T09:16:58.178Z,10.62
2022-11-04T09:19:27.863Z,10.45
2022-11-04T09:21:57.407Z,10.57
2022-11-04T09:24:27.052Z,10.46
2022-11-04T09:26:56.608Z,10.49
2022-11-04T09:29:26.784Z,10.49
2022-11-04T09:31:56.554Z,10.71
2022-11-04T09:34:25.269Z,10.95
2022-11-04T09:36:57.528Z,11.08
2022-11-04T09:39:32.975Z,11.18
2022-11-04T09:42:06.483Z,10.89
2022-11-04T09:45:22.833Z,10.88
2022-11-04T09:48:01.695Z,10.95
2022-11-04T09:50:53.032Z,10.99
2022-11-04T09:53:47.059Z,10.95
2022-11-04T09:56:37.482Z,10.86
2022-11-04T09:59:09.430Z,11.07
2022-11-04T10:02:15.232Z,10.83
2022-11-04T10:05:31.670Z,11.30
2022-11-04T10:08:20.806Z,11.32
2022-11-04T10:11:17.095Z,11.46
2022-11-04T10:14:02.952Z,11.34
2022-11-04T10:17:08.711Z,11.64
2022-11-04T10:19:54.824Z,11.69
2022-11-04T10:22:53.628Z,11.29
2022-11-04T10:25:45.626Z,11.44
2022-11-04T10:28:22.171Z,11.26
2022-11-04T10:30:53.064Z,11.42
2022-11-04T10:33:39.549Z,11.43
2022-11-04T10:36:11.431Z,11.54
2022-11-04T10:38:55.877Z,11.63
2022-11-04T10:41:37.849Z,11.94
2022-11-04T10:44:37.950Z,12.03
2022-11-04T10:47:43.036Z,12.16
2022-11-04T10:50:40.579Z,11.95
2022-11-04T10:53:27.473Z,11.73
2022-11-04T10:56:30.490Z,11.70
2022-11-04T10:59:31.906Z,11.49
2022-11-04T11:02:03.994Z,11.77
2022-11-04T11:04:40.465Z,11.73
2022-11-04T11:07:19.589Z,11.67
2022-11-04T11:09:54.669Z,11.93
2022-11-04T11:12:56.193Z,11.79
2022-11-04T11:15:26.388Z,12.05
2022-11-04T11:18:19.222Z,12.08
2022-11-04T11:21:08.930Z,12.36
2022-11-04T11:23:48.672Z,12.73
2022-11-04T11:26:30.785Z,12.82
2022-11-04T11:29:02.599Z,13.03
2022-11-04T11:31:39.893Z,13.59
2022-11-04T11:34:34.296Z,13.21
2022-11-04T11:37:07.176Z,13.22
2022-11-04T11:39:37.429Z,13.09
2022-11-04T11:42:19.224Z,13.12
2022-11-04T11:44:56.418Z,13.18
2022-11-04T11:47:28.783Z,13.54
2022-11-04T11:50:24.649Z,13.57
2022-11-04T11:52:54.243Z,13.14
2022-11-04T11:55:37.250Z,12.85
2022-11-04T12:02:12.284Z,12.68
2022-11-04T12:11:04.310Z,12.61
2022-11-04T12:13:50.851Z,12.80
2022-11-04T12:17:10.406Z,12.66
2022-11-04T12:20:13.344Z,12.65
2022-11-04T12:23:27.797Z,12.61
2022-11-04T12:26:03.271Z,12.83
2022-11-04T12:29:02.565Z,12.91
2022-11-04T12:31:56.164Z,13.07
2022-11-04T12:35:10.326Z,13.04
2022-11-04T12:38:13.157Z,13.02
2022-11-04T12:41:26.311Z,12.96
2022-11-04T12:44:44.977Z,13.20
2022-11-04T12:47:38.461Z,13.25
2022-11-04T12:50:42.739Z,12.98
2022-11-04T12:53:45.183Z,13.31
2022-11-04T12:56:37.654Z,13.14
2022-11-04T12:59:43.290Z,13.00
2022-11-04T13:02:29.154Z,12.96
2022-11-04T13:05:48.376Z,13.14
2022-11-04T13:08:32.136Z,13.05
2022-11-04T13:11:32.049Z,13.30
2022-11-04T13:14:35.750Z,13.07
2022-11-04T13:17:11.741Z,12.87
2022-11-04T13:19:52.077Z,12.98
2022-11-04T13:22:34.833Z,13.09
2022-11-04T13:25:33.907Z,13.08
2022-11-04T13:28:04.463Z,12.84
2022-11-04T13:31:04.882Z,13.03
2022-11-04T13:33:57.158Z,13.10
2022-11-04T13:37:18.551Z,12.99
2022-11-04T13:40:00.056Z,12.98
2022-11-04T13:43:38.197Z,13.11
2022-11-04T13:46:32.589Z,13.09
2022-11-04T13:49:31.153Z,12.99
2022-11-04T13:52:13.822Z,13.05
2022-11-04T13:55:06.063Z,12.99
2022-11-04T13:58:06.122Z,12.93
2022-11-04T14:00:37.677Z,13.02
2022-11-04T14:03:22.405Z,13.02
2022-11-04T14:05:59.878Z,13.01
2022-11-04T14:08:29.819Z,12.95
2022-11-04T14:11:10.411Z,12.86
2022-11-04T14:13:45.096Z,12.94
2022-11-04T14:16:17.969Z,12.80
2022-11-04T14:18:50.699Z,12.93
2022-11-04T14:21:26.765Z,12.92
2022-11-04T14:24:00.842Z,12.89
2022-11-04T14:26:44.635Z,12.85
2022-11-04T14:29:25.340Z,12.64
2022-11-04T14:31:58.495Z,12.56
2022-11-04T14:34:36.679Z,12.69
2022-11-04T14:37:25.442Z,12.65
2022-11-04T14:39:59.933Z,12.73
2022-11-04T14:42:54.761Z,12.66
2022-11-04T14:45:33.827Z,12.61
2022-11-04T14:48:19.508Z,12.53
2022-11-04T14:50:54.518Z,12.47
2022-11-04T14:53:37.720Z,12.44
2022-11-04T14:56:23.940Z,12.46
2022-11-04T14:59:08.180Z,12.44
2022-11-04T15:01:40.342Z,12.56
2022-11-04T15:04:32.596Z,12.50
2022-11-04T15:07:04.499Z,12.49
2022-11-04T15:09:42.324Z,12.63
2022-11-04T15:12:33.895Z,12.54
2022-11-04T15:15:20.370Z,12.68
2022-11-04T15:17:49.874Z,12.58
2022-11-04T15:20:30.521Z,12.54
2022-11-04T15:23:03.791Z,12.57
2022-11-04T15:25:33.086Z,12.66
2022-11-04T15:28:01.836Z,12.72
2022-11-04T15:30:31.691Z,12.89
2022-11-04T15:33:04.039Z,12.66
2022-11-04T15:35:35.074Z,12.74
2022-11-04T15:38:04.026Z,12.93
2022-11-04T15:40:35.523Z,12.69
2022-11-04T15:43:05.627Z,12.58
2022-11-04T15:45:51.755Z,12.58
2022-11-04T15:48:34.920Z,12.72
2022-11-04T15:51:24.838Z,12.50
2022-11-04T15:54:27.420Z,12.56
2022-11-04T15:57:01.099Z,12.59
2022-11-04T15:59:37.577Z,12.63
2022-11-04T16:02:28.707Z,12.90
2022-11-04T16:05:11.880Z,12.63
2022-11-04T16:07:47.944Z,13.41
2022-11-04T16:10:31.424Z,12.81
2022-11-04T16:13:22.145Z,13.41
2022-11-04T16:15:59.879Z,13.21
2022-11-04T16:18:43.128Z,13.15
2022-11-04T16:21:32.703Z,13.35
2022-11-04T16:24:30.264Z,13.06
2022-11-04T16:27:01.548Z,12.63
2022-11-04T16:29:41.544Z,12.76
2022-11-04T16:32:43.104Z,12.68
2022-11-04T16:35:27.469Z,12.58
2022-11-04T16:37:57.102Z,12.45
2022-11-04T16:40:26.096Z,12.48
2022-11-04T16:42:55.621Z,12.43
2022-11-04T16:45:36.812Z,12.45
2022-11-04T16:48:06.780Z,12.17
2022-11-04T16:50:36.276Z,12.12
2022-11-04T16:53:04.100Z,12.25
2022-11-04T16:55:33.145Z,12.14
2022-11-04T16:58:04.983Z,12.23
2022-11-04T17:00:35.718Z,12.15
2022-11-04T17:03:31.326Z,12.12
2022-11-04T17:06:00.406Z,12.61
2022-11-04T17:08:29.016Z,12.79
2022-11-04T17:10:58.714Z,12.85
2022-11-04T17:13:32.046Z,12.47
2022-11-04T17:16:05.105Z,12.26
2022-11-04T17:18:35.191Z,12.37
2022-11-04T17:21:12.506Z,12.23
2022-11-04T17:24:00.194Z,12.23
2022-11-04T17:26:50.172Z,12.16
2022-11-04T17:29:40.198Z,12.14
2022-11-04T17:32:27.919Z,12.11
2022-11-04T17:35:19.075Z,12.24
2022-11-04T17:38:11.015Z,12.17
2022-11-04T17:41:18.961Z,12.09
2022-11-04T17:44:07.714Z,11.94
2022-11-04T17:46:57.967Z,12.37
2022-11-04T17:49:47.934Z,12.20
2022-11-04T17:52:45.461Z,11.91
2022-11-04T17:55:31.196Z,11.91
2022-11-04T17:58:02.940Z,11.97
2022-11-04T18:00:31.593Z,11.92
2022-11-04T18:03:03.557Z,11.79
2022-11-04T18:05:32.228Z,11.82
2022-11-04T18:08:02.131Z,11.85
2022-11-04T18:10:31.741Z,11.80
2022-11-04T18:13:00.520Z,11.75
2022-11-04T18:15:29.214Z,11.76
2022-11-04T18:17:58.960Z,11.83
2022-11-04T18:20:27.765Z,11.83
2022-11-04T18:22:56.473Z,11.84
2022-11-04T18:25:25.947Z,11.72
2022-11-04T18:27:55.376Z,11.80
2022-11-04T18:30:24.860Z,11.74
2022-11-04T18:32:54.335Z,11.75
2022-11-04T18:35:23.913Z,11.75
2022-11-04T18:37:52.582Z,11.75
2022-11-04T18:40:22.063Z,11.58
2022-11-04T18:42:51.650Z,11.46
2022-11-04T18:45:22.925Z,11.72
2022-11-04T18:47:51.524Z,11.80
2022-11-04T18:50:21.274Z,11.75
2022-11-04T18:52:48.978Z,11.64
2022-11-04T18:55:18.512Z,11.82
2022-11-04T18:57:48.031Z,11.83
2022-11-04T19:00:17.828Z,11.78
2022-11-04T19:02:47.422Z,11.70
2022-11-04T19:05:18.069Z,11.78
2022-11-04T19:07:45.919Z,11.76
2022-11-04T19:10:15.694Z,11.85
2022-11-04T19:13:03.765Z,11.82
2022-11-04T19:15:35.934Z,11.92
2022-11-04T19:18:05.491Z,11.84
2022-11-04T19:20:36.559Z,11.82
2022-11-04T19:23:05.424Z,11.90
2022-11-04T19:25:37.945Z,11.79
2022-11-04T19:28:32.690Z,11.83
2022-11-04T19:31:02.410Z,11.75
2022-11-04T19:33:31.604Z,11.59
2022-11-04T19:36:01.261Z,11.62
2022-11-04T19:38:31.111Z,11.67
2022-11-04T19:41:34.028Z,11.79
2022-11-04T19:44:07.636Z,11.60
2022-11-04T19:46:37.858Z,11.68
2022-11-04T19:49:09.101Z,11.63
2022-11-04T19:51:38.556Z,11.71
2022-11-04T19:54:08.179Z,11.49
2022-11-04T19:56:38.761Z,11.62
2022-11-04T19:59:11.131Z,11.67
2022-11-04T20:01:40.755Z,11.61
2022-11-04T20:04:10.702Z,11.66
2022-11-04T20:06:39.595Z,11.65
2022-11-04T20:09:13.066Z,11.52
2022-11-04T20:12:01.422Z,11.63
2022-11-04T20:14:30.930Z,11.56
2022-11-04T20:16:58.768Z,11.52
2022-11-04T20:19:29.196Z,11.55
2022-11-04T20:21:57.924Z,11.59
2022-11-04T20:24:27.491Z,11.55
2022-11-04T20:26:57.001Z,11.56
2022-11-04T20:29:24.766Z,11.57
2022-11-04T20:31:55.219Z,11.58
2022-11-04T20:34:23.026Z,11.45
2022-11-04T20:36:52.613Z,11.62
2022-11-04T20:39:22.187Z,11.65
2022-11-04T20:41:50.914Z,11.56
2022-11-04T20:44:20.666Z,11.61
2022-11-04T20:46:50.210Z,11.60
2022-11-04T20:49:19.690Z,11.72
2022-11-04T20:51:54.701Z,11.59
2022-11-04T20:54:24.043Z,11.49
2022-11-04T20:56:53.489Z,11.57
2022-11-04T20:59:22.941Z,11.53
2022-11-04T21:01:52.548Z,11.53
2022-11-04T21:04:22.237Z,11.68
2022-11-04T21:06:52.210Z,11.74
2022-11-04T21:09:22.468Z,11.68
2022-11-04T21:11:52.216Z,11.51
2022-11-04T21:14:21.794Z,11.51
2022-11-04T21:16:50.544Z,11.65
2022-11-04T21:19:20.300Z,11.40
2022-11-04T21:21:52.552Z,11.53
2022-11-04T21:24:20.404Z,11.56
2022-11-04T21:26:50.291Z,11.59
2022-11-04T21:29:23.199Z,11.47
2022-11-04T21:31:51.952Z,11.46
2022-11-04T21:34:21.339Z,11.41
2022-11-04T21:36:53.329Z,11.37
2022-11-04T21:39:23.125Z,11.42
2022-11-04T21:41:51.855Z,11.41
2022-11-04T21:44:21.317Z,11.47
2022-11-04T21:46:51.086Z,11.49
2022-11-04T21:49:21.048Z,11.55
2022-11-04T21:51:49.781Z,11.50
2022-11-04T21:54:18.652Z,11.51
2022-11-04T21:56:50.764Z,11.53
2022-11-04T21:59:20.247Z,11.69
2022-11-04T22:01:50.049Z,11.81
2022-11-04T22:04:18.768Z,11.68
2022-11-04T22:06:47.408Z,11.59
2022-11-04T22:09:16.906Z,11.50
2022-11-04T22:11:46.427Z,11.56
2022-11-04T22:14:15.949Z,11.80
2022-11-04T22:16:45.441Z,11.74
2022-11-04T22:19:15.293Z,11.73
2022-11-04T22:21:46.656Z,11.81
2022-11-04T22:24:18.561Z,11.73
2022-11-04T22:26:48.608Z,11.58
2022-11-04T22:29:18.243Z,11.65
2022-11-04T22:31:47.126Z,11.50
2022-11-04T22:34:15.758Z,11.50
2022-11-04T22:36:45.213Z,11.70
2022-11-04T22:39:16.869Z,11.53
2022-11-04T22:41:46.840Z,11.46
2022-11-04T22:44:16.274Z,11.50
2022-11-04T22:46:45.720Z,11.48
2022-11-04T22:49:14.971Z,11.39
2022-11-04T22:51:44.503Z,11.39
2022-11-04T22:54:14.089Z,11.45
2022-11-04T22:56:43.557Z,11.33
2022-11-04T22:59:13.184Z,11.37
2022-11-04T23:01:42.806Z,11.38
2022-11-04T23:04:12.509Z,11.36
2022-11-04T23:06:42.564Z,11.41
2022-11-04T23:09:14.201Z,11.45
2022-11-04T23:12:02.316Z,11.38
2022-11-04T23:14:54.278Z,11.34
2022-11-04T23:17:42.906Z,11.32
2022-11-04T23:20:15.946Z,11.38
2022-11-04T23:23:04.037Z,11.29
2022-11-04T23:25:33.759Z,11.23
2022-11-04T23:28:21.047Z,11.26
2022-11-04T23:30:52.333Z,11.21
2022-11-04T23:33:42.206Z,11.33
2022-11-04T23:36:30.106Z,11.34
2022-11-04T23:38:59.636Z,11.24
2022-11-04T23:41:47.843Z,11.23
2022-11-04T23:44:36.482Z,11.23
2022-11-04T23:47:23.833Z,11.14
2022-11-04T23:50:12.030Z,11.31
2022-11-04T23:53:00.276Z,11.18
2022-11-04T23:55:47.873Z,11.35
2022-11-04T23:58:35.152Z,11.33
